Time;durP1;ratioP1;P1;durP2;ratioP2;P2;SDS_P1;SDS_P2;PMS_P1;PMS_P2;Temp;Humidity;BMP_temperature;BMP_pressure;BME280_temperature;BME280_humidity;BME280_pressure;Samples;Min_cycle;Max_cycle;Signal;HPM_P1;HPM_P2
2021/03/20 00:00:18;;;;;;;21.20;10.98;;;;;;;-1.22;81.08;97232.19;5017566;28;20045;-61
2021/03/20 00:02:43;;;;;;;21.27;10.80;;;;;;;-1.23;81.35;97233.25;5019515;28;20042;-63
2021/03/20 00:05:10;;;;;;;21.38;11.18;;;;;;;-1.21;80.88;97236.47;5013473;28;20038;-61
2021/03/20 00:07:36;;;;;;;22.15;11.18;;;;;;;-1.19;80.49;97231.63;5021714;28;20045;-59
2021/03/20 00:10:05;;;;;;;20.30;10.05;;;;;;;-1.07;79.89;97236.66;5022302;28;20073;-61
2021/03/20 00:12:31;;;;;;;21.77;10.40;;;;;;;-0.90;78.30;97233.59;5021152;28;20041;-60
2021/03/20 00:14:56;;;;;;;18.55;10.05;;;;;;;-0.97;78.39;97236.63;5021940;28;20064;-60
2021/03/20 00:17:22;;;;;;;24.75;10.63;;;;;;;-0.83;78.25;97236.78;4997305;28;20120;-61
2021/03/20 00:19:47;;;;;;;20.35;10.45;;;;;;;-0.90;75.72;97238.97;5013825;28;20072;-61
2021/03/20 00:22:13;;;;;;;20.65;10.50;;;;;;;-0.66;75.58;97242.56;5010072;28;20056;-60
2021/03/20 00:24:39;;;;;;;20.17;11.07;;;;;;;-0.91;75.49;97237.38;5024253;28;20125;-63
2021/03/20 00:27:04;;;;;;;18.98;9.05;;;;;;;-0.67;75.13;97240.97;5017371;28;20625;-60
2021/03/20 00:29:30;;;;;;;20.65;9.95;;;;;;;-0.82;74.91;97233.00;5014467;28;20145;-60
2021/03/20 00:31:55;;;;;;;19.25;10.15;;;;;;;-0.77;74.93;97235.69;5018724;28;20145;-61
2021/03/20 00:34:20;;;;;;;19.58;10.27;;;;;;;-0.88;74.39;97234.13;5013028;28;20037;-60
2021/03/20 00:36:46;;;;;;;17.33;9.15;;;;;;;-0.92;74.88;97241.13;5009537;28;20038;-62
2021/03/20 00:39:11;;;;;;;16.85;8.73;;;;;;;-0.69;73.86;97243.13;5000456;28;20037;-60
2021/03/20 00:41:37;;;;;;;17.63;9.05;;;;;;;-0.79;74.08;97243.22;5012770;28;20041;-60
2021/03/20 00:44:03;;;;;;;19.17;9.65;;;;;;;-0.68;73.83;97244.75;4998049;28;20041;-63
2021/03/20 00:46:28;;;;;;;17.75;10.07;;;;;;;-0.80;73.08;97244.28;5009586;28;20050;-62
2021/03/20 00:48:54;;;;;;;18.13;9.45;;;;;;;-0.89;73.94;97246.75;5004997;28;20394;-61
2021/03/20 00:51:19;;;;;;;19.25;9.48;;;;;;;-1.00;73.62;97242.53;5000149;28;20105;-62
2021/03/20 00:53:45;;;;;;;20.25;9.93;;;;;;;-1.05;73.27;97246.06;5005577;28;20042;-61
2021/03/20 00:56:10;;;;;;;14.82;8.55;;;;;;;-1.12;74.07;97236.69;4998344;28;20042;-60
2021/03/20 00:58:39;;;;;;;20.05;9.13;;;;;;;-1.16;74.38;97239.13;5014603;28;20516;-62
2021/03/20 01:01:11;;;;;;;16.90;9.45;;;;;;;-1.11;74.10;97239.09;5000126;28;20060;-61
2021/03/20 01:03:38;;;;;;;20.85;9.60;;;;;;;-1.25;74.48;97241.59;5005030;28;20056;-61
2021/03/20 01:06:08;;;;;;;26.63;11.00;;;;;;;-1.38;74.89;97240.31;4997198;28;20494;-61
2021/03/20 01:08:34;;;;;;;19.63;10.18;;;;;;;-1.42;75.20;97241.16;5014793;28;20045;-60
2021/03/20 01:11:00;;;;;;;19.48;10.43;;;;;;;-1.54;75.66;97244.16;5022817;28;20056;-59
2021/03/20 01:13:25;;;;;;;18.92;9.15;;;;;;;-1.58;76.00;97243.09;5018999;28;20154;-61
2021/03/20 01:15:51;;;;;;;18.00;9.23;;;;;;;-1.49;75.48;97241.44;5007904;28;20569;-61
2021/03/20 01:18:17;;;;;;;17.08;9.35;;;;;;;-1.52;75.91;97249.25;5005643;28;20128;-62
2021/03/20 01:20:44;;;;;;;17.30;9.52;;;;;;;-1.63;76.45;97245.81;5022201;28;20045;-58
2021/03/20 01:23:10;;;;;;;19.50;9.88;;;;;;;-1.40;75.20;97252.44;5015555;28;20128;-59
2021/03/20 01:25:36;;;;;;;16.73;8.07;;;;;;;-1.47;75.90;97243.88;5020712;28;20057;-62
2021/03/20 01:28:01;;;;;;;18.80;9.93;;;;;;;-1.49;75.16;97248.72;5036354;28;20042;-61
2021/03/20 01:30:33;;;;;;;19.88;10.10;;;;;;;-1.43;75.28;97250.28;5039306;28;20137;-61
2021/03/20 01:32:58;;;;;;;21.45;10.20;;;;;;;-1.32;75.15;97251.03;5044247;28;20042;-61
2021/03/20 01:35:24;;;;;;;20.25;9.30;;;;;;;-1.42;74.98;97243.84;5005680;28;20048;-61
2021/03/20 01:37:50;;;;;;;17.35;8.93;;;;;;;-1.54;75.52;97244.16;5025077;28;20061;-61
2021/03/20 01:40:25;;;;;;;23.17;9.98;;;;;;;-1.65;75.81;97242.59;5019038;28;20097;-61
2021/03/20 01:42:51;;;;;;;19.30;9.52;;;;;;;-1.79;76.51;97239.66;5024709;28;20056;-61
2021/03/20 01:45:31;;;;;;;19.13;9.93;;;;;;;-1.89;77.19;97240.50;5000191;28;20045;-61
2021/03/20 01:47:56;;;;;;;21.77;10.75;;;;;;;-1.93;77.04;97244.78;5033170;28;20053;-62
2021/03/20 01:50:27;;;;;;;19.20;9.73;;;;;;;-2.07;77.88;97246.44;5036366;28;20081;-61
2021/03/20 01:52:56;;;;;;;19.13;11.25;;;;;;;-2.12;77.33;97242.69;5033841;28;20073;-60
2021/03/20 01:55:23;;;;;;;21.90;10.23;;;;;;;-2.04;77.29;97235.97;5018747;28;20048;-60
2021/03/20 01:57:52;;;;;;;23.10;11.48;;;;;;;-2.12;77.85;97233.84;5023879;28;20105;-60
2021/03/20 02:00:30;;;;;;;;;;;;;;;-2.16;77.88;97240.81;5020068;28;20054;-60
2021/03/20 02:02:56;;;;;;;20.63;8.55;;;;;;;-2.23;78.10;97237.59;5023231;28;19920;-60
2021/03/20 02:05:24;;;;;;;22.50;10.05;;;;;;;-2.08;77.95;97237.59;5002394;28;20637;-60
2021/03/20 02:07:50;;;;;;;22.50;10.13;;;;;;;-2.13;77.81;97237.59;5004889;28;20427;-61
2021/03/20 02:10:16;;;;;;;19.80;10.15;;;;;;;-2.18;77.35;97238.44;4996830;28;20038;-61
2021/03/20 02:12:45;;;;;;;20.58;10.32;;;;;;;-2.21;78.11;97246.22;5004121;28;20402;-61
2021/03/20 02:15:30;;;;;;;18.70;10.07;;;;;;;-2.21;78.21;97238.97;4996881;28;20045;-61
2021/03/20 02:18:16;;;;;;;22.23;9.93;;;;;;;-2.17;77.67;97241.91;5003991;28;20054;-61
2021/03/20 02:21:04;;;;;;;19.65;9.60;;;;;;;-2.26;78.58;97243.53;4995525;28;20104;-61
2021/03/20 02:24:06;;;;;;;19.95;10.38;;;;;;;-2.33;78.70;97246.47;5003344;28;20044;-60
2021/03/20 02:27:09;;;;;;;20.48;10.40;;;;;;;-2.37;78.72;97246.22;4994338;28;20049;-60
2021/03/20 02:30:19;;;;;;;20.10;9.20;;;;;;;-2.37;78.78;97245.41;5002752;28;20193;-62
2021/03/20 02:33:03;;;;;;;19.40;9.38;;;;;;;-2.41;79.00;97247.00;4955393;28;20457;-60
2021/03/20 02:35:39;;;;;;;18.58;9.38;;;;;;;-2.32;78.83;97250.78;5001750;28;20505;-60
2021/03/20 02:38:17;;;;;;;23.63;10.30;;;;;;;-2.29;78.62;97258.28;4999107;28;20430;-63
2021/03/20 02:40:49;;;;;;;23.38;10.52;;;;;;;-2.36;78.64;97252.38;5007721;28;20069;-62
2021/03/20 02:43:24;;;;;;;21.95;10.23;;;;;;;-2.36;78.73;97257.75;5002927;28;20125;-61
2021/03/20 02:46:03;;;;;;;22.23;11.05;;;;;;;-2.35;78.42;97251.31;5003773;28;20052;-60
2021/03/20 02:48:47;;;;;;;21.92;10.13;;;;;;;-2.28;78.48;97264.47;4999477;28;20529;-60
2021/03/20 02:51:45;;;;;;;21.30;9.93;;;;;;;-2.27;78.96;97260.69;4997912;28;20034;-60
2021/03/20 02:54:37;;;;;;;22.95;9.85;;;;;;;-2.33;78.84;97252.66;4998860;28;20089;-61
2021/03/20 02:57:41;;;;;;;21.23;9.88;;;;;;;-2.55;79.11;97247.56;4999826;28;20097;-61
2021/03/20 03:00:34;;;;;;;21.25;10.00;;;;;;;-2.42;79.09;97261.50;4965842;28;20085;-60
2021/03/20 03:03:02;;;;;;;22.60;10.52;;;;;;;-2.45;79.67;97265.53;5010699;28;20514;-61
2021/03/20 03:05:56;;;;;;;20.67;9.95;;;;;;;-2.56;79.25;97255.88;5020391;28;20041;-60
2021/03/20 03:08:29;;;;;;;23.42;10.02;;;;;;;-2.54;79.63;97256.41;5017745;28;21294;-61
2021/03/20 03:11:35;;;;;;;19.45;9.38;;;;;;;-2.64;79.89;97267.16;5022984;28;20041;-62
2021/03/20 03:14:08;;;;;;;17.10;8.85;;;;;;;-2.57;79.93;97265.00;5009065;28;20041;-61
2021/03/20 03:16:43;;;;;;;19.92;10.07;;;;;;;-2.64;80.01;97264.47;5009713;28;20041;-64
2021/03/20 03:19:13;;;;;;;22.20;10.35;;;;;;;-2.71;79.96;97262.84;5019919;28;20049;-60
2021/03/20 03:21:43;;;;;;;23.23;10.65;;;;;;;-2.72;80.23;97260.41;5022665;28;20498;-60
2021/03/20 03:24:13;;;;;;;23.13;10.35;;;;;;;-2.79;80.50;97267.91;5017579;28;20049;-61
2021/03/20 03:26:40;;;;;;;22.85;10.80;;;;;;;-2.82;80.70;97268.47;5020347;28;20048;-61
2021/03/20 03:29:11;;;;;;;22.88;11.27;;;;;;;-2.93;81.06;97265.75;4997010;28;20061;-61
2021/03/20 03:31:41;;;;;;;25.75;10.85;;;;;;;-2.94;80.89;97255.31;5018980;28;20060;-62
2021/03/20 03:34:16;;;;;;;22.75;10.07;;;;;;;-2.92;81.11;97258.53;5012758;28;20041;-60
2021/03/20 03:37:09;;;;;;;23.30;9.90;;;;;;;-2.90;80.76;97257.19;5019857;28;20487;-61
2021/03/20 03:39:43;;;;;;;22.80;10.93;;;;;;;-2.95;81.24;97262.56;5014226;28;20045;-60
2021/03/20 03:42:11;;;;;;;18.58;10.30;;;;;;;-3.03;81.11;97255.00;5009219;28;20052;-62
2021/03/20 03:44:37;;;;;;;19.05;9.27;;;;;;;-2.95;80.65;97267.13;5034631;28;20045;-61
2021/03/20 03:47:03;;;;;;;23.50;10.52;;;;;;;-3.02;81.33;97261.19;5002072;28;20034;-62
2021/03/20 03:49:28;;;;;;;19.90;9.85;;;;;;;-3.03;81.06;97262.25;4992354;28;20042;-60
2021/03/20 03:51:54;;;;;;;19.10;9.85;;;;;;;-3.08;81.17;97263.03;5022181;28;20068;-60
2021/03/20 03:54:19;;;;;;;22.70;10.55;;;;;;;-3.09;81.50;97272.16;5011579;28;20033;-60
2021/03/20 03:57:04;;;;;;;20.20;9.23;;;;;;;-3.11;81.81;97264.38;5011419;28;20499;-59
2021/03/20 03:59:47;;;;;;;20.50;10.75;;;;;;;-3.18;81.80;97257.69;5006958;28;20096;-61
2021/03/20 04:02:17;;;;;;;21.48;10.77;;;;;;;-3.20;81.62;97260.63;5008928;28;20041;-61
2021/03/20 04:04:59;;;;;;;22.75;11.50;;;;;;;-3.20;81.98;97259.81;5023712;28;20068;-60
2021/03/20 04:08:02;;;;;;;23.52;9.88;;;;;;;-3.24;82.41;97267.56;5015659;28;20127;-60
2021/03/20 04:10:40;;;;;;;19.35;10.07;;;;;;;-3.23;82.20;97268.38;5026262;28;20052;-61
2021/03/20 04:13:23;;;;;;;20.70;10.10;;;;;;;-3.21;82.00;97274.28;5027226;28;20061;-64
2021/03/20 04:16:12;;;;;;;20.50;10.70;;;;;;;-3.27;82.80;97278.81;5019548;28;20105;-61
2021/03/20 04:19:01;;;;;;;20.15;10.90;;;;;;;-3.28;83.21;97283.38;5004300;28;20076;-61
2021/03/20 04:21:37;;;;;;;21.42;10.65;;;;;;;-3.24;82.71;97282.81;5017966;28;20050;-62
2021/03/20 04:24:14;;;;;;;20.80;10.13;;;;;;;-3.24;82.61;97280.16;5022891;28;20049;-61
2021/03/20 04:26:44;;;;;;;26.95;12.85;;;;;;;-3.28;83.18;97279.88;5026170;28;20034;-59
2021/03/20 04:29:23;;;;;;;20.52;9.40;;;;;;;-3.18;83.04;97279.13;5021799;28;20033;-61
2021/03/20 04:31:59;;;;;;;21.13;10.50;;;;;;;-3.28;83.31;97283.38;5017968;28;20038;-62
2021/03/20 04:34:40;;;;;;;23.52;10.35;;;;;;;-3.28;82.88;97293.25;5014208;28;20115;-61
2021/03/20 04:37:11;;;;;;;21.65;11.30;;;;;;;-3.23;82.67;97289.81;5022023;28;20413;-60
2021/03/20 04:39:41;;;;;;;20.67;11.48;;;;;;;-3.24;82.54;97298.91;5026434;28;20554;-61
2021/03/20 04:42:07;;;;;;;18.85;9.63;;;;;;;-3.15;82.47;97311.53;5021565;28;20045;-61
2021/03/20 04:44:36;;;;;;;20.80;10.20;;;;;;;-3.20;82.47;97311.53;5019439;28;20063;-61
2021/03/20 04:47:11;;;;;;;19.38;9.05;;;;;;;-3.18;82.33;97306.69;5007994;28;20044;-61
2021/03/20 04:49:42;;;;;;;23.00;10.57;;;;;;;-3.15;82.46;97308.03;5016122;28;20046;-60
2021/03/20 04:52:16;;;;;;;21.88;10.50;;;;;;;-3.19;82.07;97312.31;5006230;28;20434;-60
2021/03/20 04:54:43;;;;;;;20.38;9.50;;;;;;;-3.12;82.00;97316.34;5008373;28;20356;-59
2021/03/20 04:57:08;;;;;;;20.27;10.02;;;;;;;-3.21;82.23;97320.63;5013306;28;20041;-60
2021/03/20 04:59:45;;;;;;;17.52;9.60;;;;;;;-3.32;82.68;97322.44;5023550;28;20041;-59
2021/03/20 05:02:19;;;;;;;22.00;10.80;;;;;;;-3.21;82.14;97320.63;5003148;28;20435;-61
2021/03/20 05:04:46;;;;;;;19.15;9.82;;;;;;;-3.14;81.94;97323.84;5023126;28;20796;-62
2021/03/20 05:07:15;;;;;;;24.05;9.95;;;;;;;-3.13;81.26;97327.38;5021610;28;20379;-62
2021/03/20 05:09:40;;;;;;;16.80;8.90;;;;;;;-3.22;81.63;97329.75;5027443;28;20033;-61
2021/03/20 05:12:25;;;;;;;23.63;11.02;;;;;;;-3.17;82.23;97326.25;5015690;28;20034;-62
2021/03/20 05:15:18;;;;;;;25.65;10.43;;;;;;;-3.30;81.94;97330.22;5029877;28;20049;-60
2021/03/20 05:17:43;;;;;;;21.42;10.18;;;;;;;-3.27;82.06;97325.16;5006652;28;20046;-61
2021/03/20 05:20:09;;;;;;;20.73;10.32;;;;;;;-3.25;82.33;97337.50;4999665;28;20398;-60
2021/03/20 05:22:34;;;;;;;21.65;9.75;;;;;;;-3.15;81.94;97327.63;5006045;28;20140;-62
2021/03/20 05:25:01;;;;;;;23.15;10.00;;;;;;;-3.02;81.19;97339.72;5012567;28;20499;-60
2021/03/20 05:27:31;;;;;;;24.67;10.18;;;;;;;-3.07;81.41;97335.13;5003403;28;20573;-60
2021/03/20 05:29:56;;;;;;;;;;;;;;;-3.13;81.11;97328.16;5022349;28;20049;-60
2021/03/20 05:32:31;;;;;;;18.50;8.95;;;;;;;-3.21;82.19;97335.91;5012357;28;19986;-61
2021/03/20 05:34:58;;;;;;;24.67;11.45;;;;;;;-3.41;82.72;97337.41;5024092;28;20136;-60
2021/03/20 05:37:31;;;;;;;21.42;11.25;;;;;;;-3.40;83.13;97333.69;5017432;28;20045;-61
2021/03/20 05:39:57;;;;;;;22.05;9.73;;;;;;;-3.40;83.17;97341.72;5006885;28;20048;-60
2021/03/20 05:42:31;;;;;;;24.20;10.18;;;;;;;-3.33;83.22;97336.94;5017974;28;20579;-59
2021/03/20 05:45:18;;;;;;;22.10;10.82;;;;;;;-3.35;83.00;97346.28;5024039;28;20057;-60
2021/03/20 05:47:52;;;;;;;20.45;9.10;;;;;;;-3.29;82.73;97351.41;5002257;28;20125;-58
2021/03/20 05:50:46;;;;;;;23.95;10.57;;;;;;;-3.22;82.53;97353.03;5023381;28;20051;-61
2021/03/20 05:53:14;;;;;;;22.75;12.40;;;;;;;-3.07;81.93;97358.47;5025578;28;20049;-60
2021/03/20 05:55:52;;;;;;;22.13;11.45;;;;;;;-2.77;81.64;97351.59;5014269;28;20046;-60
2021/03/20 05:58:42;;;;;;;25.52;13.45;;;;;;;-2.21;79.36;97351.66;5022163;28;20051;-61
2021/03/20 06:01:07;;;;;;;;;;;;;;;-2.25;78.13;97355.97;5019205;28;20081;-59
2021/03/20 06:03:39;;;;;;;18.47;10.00;;;;;;;-1.67;76.59;97360.25;5008155;28;19921;-60
2021/03/20 06:06:26;;;;;;;18.75;10.07;;;;;;;-2.07;77.10;97357.31;5007563;28;20681;-61
2021/03/20 06:09:03;;;;;;;17.38;8.45;;;;;;;-1.81;76.88;97365.34;5003358;28;20207;-60
2021/03/20 06:11:38;;;;;;;19.98;9.13;;;;;;;-1.71;75.44;97361.84;5008442;28;20046;-60
2021/03/20 06:14:26;;;;;;;17.85;9.18;;;;;;;-2.03;76.92;97363.75;5014192;28;20510;-61
2021/03/20 06:17:38;;;;;;;26.83;15.90;;;;;;;-2.20;77.22;97357.84;5005719;28;20041;-60
2021/03/20 06:20:09;;;;;;;18.38;9.68;;;;;;;-1.54;75.88;97363.16;5017919;28;20471;-62
2021/03/20 06:22:44;;;;;;;19.95;11.02;;;;;;;-1.00;73.62;97366.22;5006932;28;20100;-60
2021/03/20 06:25:21;;;;;;;18.75;9.98;;;;;;;-1.33;73.33;97359.59;4998125;28;20101;-60
2021/03/20 06:27:51;;;;;;;30.40;14.38;;;;;;;-0.98;73.68;97362.16;5009507;28;20140;-60
2021/03/20 06:30:35;;;;;;;;;;;;;;;-0.54;71.67;97365.19;5002938;28;20085;-59
2021/03/20 06:33:25;;;;;;;18.10;10.05;;;;;;;0.13;67.25;97366.34;5010296;28;19968;-61
2021/03/20 06:36:18;;;;;;;17.00;9.93;;;;;;;-0.54;71.58;97357.94;5027014;28;20041;-61
2021/03/20 06:38:56;;;;;;;18.08;9.50;;;;;;;0.47;66.58;97365.50;5028307;28;20048;-58
2021/03/20 06:41:39;;;;;;;17.77;9.88;;;;;;;0.22;68.09;97376.47;5016596;28;20057;-60
2021/03/20 06:44:22;;;;;;;18.73;10.13;;;;;;;-0.43;71.00;97372.13;5016230;28;20120;-64
2021/03/20 06:46:49;;;;;;;20.13;12.13;;;;;;;-0.96;72.47;97375.34;5012564;28;20101;-60
2021/03/20 06:49:29;;;;;;;17.92;9.38;;;;;;;-0.32;72.61;97375.56;5007234;28;20391;-63
2021/03/20 06:51:57;;;;;;;16.33;9.60;;;;;;;0.40;67.31;97367.72;5003317;28;20394;-59
2021/03/20 06:54:24;;;;;;;18.35;10.48;;;;;;;-0.73;71.35;97376.59;4996739;28;20050;-62
2021/03/20 06:56:50;;;;;;;18.77;10.27;;;;;;;-0.77;72.50;97383.63;5016428;28;20038;-60
2021/03/20 06:59:16;;;;;;;21.52;11.18;;;;;;;-0.24;70.74;97391.09;5017593;28;20041;-63
2021/03/20 07:01:56;;;;;;;18.25;10.35;;;;;;;-0.30;70.80;97393.03;5013505;28;20553;-62
2021/03/20 07:04:37;;;;;;;20.77;10.40;;;;;;;-1.05;73.92;97393.13;5007996;28;20865;-62
2021/03/20 07:07:49;;;;;;;15.95;9.18;;;;;;;-0.42;71.25;97395.25;5021119;28;20037;-62
2021/03/20 07:10:46;;;;;;;16.38;9.13;;;;;;;0.23;68.93;97396.97;5028922;28;20040;-61
2021/03/20 07:13:38;;;;;;;21.15;11.93;;;;;;;-1.14;73.89;97406.31;5025119;28;20071;-62
2021/03/20 07:16:05;;;;;;;17.55;10.18;;;;;;;-1.47;75.49;97403.19;5010038;28;20058;-61
2021/03/20 07:18:38;;;;;;;19.95;10.30;;;;;;;-1.24;74.82;97407.16;5015634;28;20046;-60
2021/03/20 07:21:38;;;;;;;16.27;10.23;;;;;;;-1.01;73.23;97413.84;4998840;28;20499;-63
2021/03/20 07:24:14;;;;;;;14.98;7.78;;;;;;;-0.11;70.11;97405.81;4999638;28;20046;-61
2021/03/20 07:26:54;;;;;;;18.92;10.38;;;;;;;-0.99;71.76;97406.28;5001313;28;20034;-62
2021/03/20 07:29:38;;;;;;;13.68;8.18;;;;;;;-0.31;69.79;97418.34;5012041;28;20037;-62
2021/03/20 07:32:04;;;;;;;15.38;8.77;;;;;;;-0.25;70.63;97419.13;5003893;28;20045;-61
2021/03/20 07:34:32;;;;;;;12.80;6.72;;;;;;;-0.08;68.27;97429.50;5020928;28;20034;-61
2021/03/20 07:37:17;;;;;;;13.38;7.32;;;;;;;-1.00;69.80;97428.06;5003375;28;20052;-60
2021/03/20 07:39:46;;;;;;;12.00;6.15;;;;;;;-0.79;71.03;97437.69;5004177;28;20041;-61
2021/03/20 07:42:35;;;;;;;16.37;7.50;;;;;;;0.46;65.54;97436.66;5000216;28;20209;-59
2021/03/20 07:45:07;;;;;;;13.43;7.55;;;;;;;0.75;65.89;97444.72;5005007;28;20061;-62
2021/03/20 07:47:39;;;;;;;11.98;6.68;;;;;;;0.04;67.18;97445.31;5019727;28;20126;-60
2021/03/20 07:50:09;;;;;;;11.70;5.88;;;;;;;0.42;64.51;97440.19;5003071;28;20057;-62
2021/03/20 07:52:36;;;;;;;12.93;6.05;;;;;;;-0.44;68.30;97446.66;5014403;28;20050;-62
2021/03/20 07:55:21;;;;;;;12.18;7.30;;;;;;;-0.84;68.29;97439.59;4991186;28;20045;-61
2021/03/20 07:57:58;;;;;;;15.50;7.75;;;;;;;-1.48;71.31;97449.13;5010335;28;20557;-58
2021/03/20 08:00:40;;;;;;;13.90;6.93;;;;;;;-1.29;70.60;97447.50;5002995;28;20417;-60
2021/03/20 08:03:13;;;;;;;16.13;7.45;;;;;;;-1.18;70.57;97451.75;5024316;28;20132;-59
2021/03/20 08:05:39;;;;;;;17.50;8.57;;;;;;;-1.08;69.64;97448.25;5025730;28;20060;-60
2021/03/20 08:08:25;;;;;;;16.85;9.68;;;;;;;-0.71;68.61;97449.75;5008892;28;20618;-62
2021/03/20 08:10:56;;;;;;;10.05;6.00;;;;;;;-0.33;67.53;97447.41;5028064;28;20044;-61
2021/03/20 08:13:32;;;;;;;14.13;6.88;;;;;;;0.48;64.35;97449.84;5014316;28;20058;-62
2021/03/20 08:15:58;;;;;;;14.48;7.30;;;;;;;-0.15;62.22;97455.94;5010415;28;20180;-61
2021/03/20 08:18:31;;;;;;;11.35;5.57;;;;;;;-0.29;63.66;97444.97;5002931;28;21226;-60
2021/03/20 08:21:12;;;;;;;12.07;7.38;;;;;;;-0.83;63.04;97446.56;5008878;28;20169;-58
2021/03/20 08:23:48;;;;;;;12.75;5.95;;;;;;;-0.93;63.42;97463.53;5025398;28;20124;-60
2021/03/20 08:26:51;;;;;;;8.57;5.60;;;;;;;-0.86;62.10;97466.75;5012608;28;20842;-58
2021/03/20 08:30:01;;;;;;;10.50;5.22;;;;;;;-0.31;61.84;97472.16;5011049;28;20034;-61
2021/03/20 08:33:02;;;;;;;12.18;5.50;;;;;;;-0.17;60.28;97474.28;4941044;28;20051;-61
2021/03/20 08:35:33;;;;;;;10.30;5.45;;;;;;;0.00;60.17;97469.34;4942554;28;20043;-61
2021/03/20 08:38:22;;;;;;;8.88;4.95;;;;;;;-0.73;61.10;97478.03;4996833;28;20181;-62
2021/03/20 08:41:12;;;;;;;10.50;5.50;;;;;;;-0.49;62.92;97480.88;5008059;28;20061;-61
2021/03/20 08:44:11;;;;;;;9.50;5.47;;;;;;;-0.97;62.99;97482.13;4991725;28;20072;-62
2021/03/20 08:46:57;;;;;;;8.98;4.82;;;;;;;-0.65;64.13;97483.66;5012381;28;20100;-60
2021/03/20 08:49:46;;;;;;;10.60;6.05;;;;;;;-0.84;62.26;97488.81;5008851;28;20249;-60
2021/03/20 08:52:20;;;;;;;10.02;5.43;;;;;;;-1.10;62.52;97501.47;5010007;28;20113;-61
2021/03/20 08:55:21;;;;;;;7.82;4.82;;;;;;;-0.96;62.97;97491.78;5031245;28;20055;-61
2021/03/20 08:57:49;;;;;;;7.90;5.22;;;;;;;-1.04;62.92;97508.47;5032285;28;20044;-62
2021/03/20 09:00:23;;;;;;;8.63;5.47;;;;;;;-0.92;63.31;97515.44;5027679;28;20053;-63
2021/03/20 09:02:53;;;;;;;9.85;4.93;;;;;;;-0.85;62.40;97511.38;5009244;28;20101;-60
2021/03/20 09:05:43;;;;;;;13.45;6.35;;;;;;;-0.22;62.01;97512.78;5010349;28;20418;-60
2021/03/20 09:08:16;;;;;;;7.75;4.38;;;;;;;0.59;58.52;97515.25;5013933;28;20422;-59
2021/03/20 09:10:52;;;;;;;7.55;4.68;;;;;;;1.18;56.92;97513.38;5014721;28;20554;-57
2021/03/20 09:13:25;;;;;;;8.38;5.90;;;;;;;0.38;58.40;97513.53;5011723;28;20054;-61
2021/03/20 09:15:56;;;;;;;12.20;6.15;;;;;;;0.44;59.97;97510.78;5016047;28;20046;-59
2021/03/20 09:18:22;;;;;;;10.02;5.88;;;;;;;-0.18;60.80;97507.66;5010536;28;20135;-60
2021/03/20 09:21:00;;;;;;;10.73;6.63;;;;;;;-0.79;63.07;97514.91;5015156;28;20514;-61
2021/03/20 09:23:55;;;;;;;18.83;12.35;;;;;;;-0.35;62.27;97516.88;4999783;28;20128;-62
2021/03/20 09:26:41;;;;;;;8.90;5.47;;;;;;;0.15;59.71;97514.22;4983606;28;20419;-62
2021/03/20 09:29:14;;;;;;;7.20;5.38;;;;;;;0.35;59.41;97506.00;5000187;28;20082;-62
2021/03/20 09:31:54;;;;;;;8.20;4.55;;;;;;;0.78;56.41;97510.00;5013694;28;20123;-60
2021/03/20 09:34:36;;;;;;;7.47;4.45;;;;;;;0.61;57.10;97508.47;5013334;28;20473;-60
2021/03/20 09:37:18;;;;;;;8.90;5.50;;;;;;;0.84;55.97;97512.34;5022609;28;20465;-61
2021/03/20 09:39:44;;;;;;;7.90;4.78;;;;;;;2.01;54.50;97505.94;5025096;28;20070;-63
2021/03/20 09:42:27;;;;;;;7.43;4.65;;;;;;;1.04;53.57;97507.84;5015988;28;20038;-63
2021/03/20 09:45:03;;;;;;;9.52;4.35;;;;;;;1.53;52.55;97506.78;5018676;28;20080;-61
2021/03/20 09:47:32;;;;;;;6.63;4.30;;;;;;;2.80;49.84;97506.09;5012090;28;20049;-61
2021/03/20 09:50:03;;;;;;;5.83;4.80;;;;;;;3.68;49.50;97501.78;5014231;28;20072;-61
2021/03/20 09:52:33;;;;;;;6.43;4.22;;;;;;;2.23;49.71;97508.03;5023157;28;20041;-62
2021/03/20 09:55:18;;;;;;;;;;;;;;;1.87;51.70;97509.34;5030615;28;20037;-62
2021/03/20 09:57:52;;;;;;;7.07;4.18;;;;;;;1.92;53.71;97509.25;5029256;28;19983;-64
2021/03/20 10:00:48;;;;;;;7.15;4.90;;;;;;;0.83;54.49;97513.44;5009138;28;20038;-62
2021/03/20 10:03:35;;;;;;;7.78;4.88;;;;;;;1.42;53.55;97518.78;5013238;28;20087;-62
2021/03/20 10:06:18;;;;;;;5.32;3.92;;;;;;;1.50;52.38;97524.38;5003252;28;20038;-60
2021/03/20 10:08:47;;;;;;;6.60;4.28;;;;;;;1.91;50.36;97518.47;5004260;28;20056;-62
2021/03/20 10:11:30;;;;;;;7.53;4.18;;;;;;;1.24;52.40;97518.47;5004021;28;20041;-62
2021/03/20 10:13:56;;;;;;;8.82;4.38;;;;;;;1.12;52.39;97518.03;5006917;28;20103;-62
2021/03/20 10:16:25;;;;;;;6.65;4.40;;;;;;;1.08;51.75;97512.41;5007534;28;20034;-62
2021/03/20 10:19:07;;;;;;;6.00;4.18;;;;;;;1.40;50.53;97519.06;5020891;28;20045;-62
2021/03/20 10:21:33;;;;;;;7.93;4.00;;;;;;;0.68;53.38;97503.56;5012194;28;20056;-62
2021/03/20 10:24:24;;;;;;;6.78;4.47;;;;;;;0.65;53.12;97503.34;5026477;28;20041;-62
2021/03/20 10:26:55;;;;;;;6.72;4.63;;;;;;;0.68;52.73;97498.19;5028297;28;20045;-61
2021/03/20 10:29:20;;;;;;;5.95;4.03;;;;;;;0.83;52.58;97507.22;5012577;28;20046;-62
2021/03/20 10:31:50;;;;;;;7.28;4.75;;;;;;;0.67;53.21;97501.97;5021442;28;20088;-61
2021/03/20 10:34:23;;;;;;;6.75;4.57;;;;;;;0.58;53.19;97500.97;5009030;28;20045;-60
2021/03/20 10:37:02;;;;;;;6.35;3.85;;;;;;;1.56;49.63;97495.41;5017182;28;20059;-62
2021/03/20 10:39:32;;;;;;;6.13;4.50;;;;;;;2.55;47.27;97496.47;5015699;28;20041;-62
2021/03/20 10:42:25;;;;;;;5.50;3.58;;;;;;;3.47;44.03;97498.69;5023397;28;20438;-61
2021/03/20 10:44:58;;;;;;;5.25;3.20;;;;;;;3.53;43.15;97486.63;5016047;28;20041;-61
2021/03/20 10:47:37;;;;;;;5.95;4.03;;;;;;;2.56;45.54;97494.59;5018185;28;20517;-62
2021/03/20 10:50:27;;;;;;;5.43;4.03;;;;;;;2.82;45.33;97495.75;5011370;28;20041;-63
2021/03/20 10:52:57;;;;;;;5.10;3.60;;;;;;;3.37;45.63;97491.56;5019625;28;20522;-62
2021/03/20 10:55:44;;;;;;;8.85;3.67;;;;;;;3.77;45.20;97486.44;5003824;28;21709;-62
2021/03/20 10:58:16;;;;;;;6.03;3.78;;;;;;;3.41;44.60;97493.34;5004165;28;20475;-61
2021/03/20 11:00:47;;;;;;;6.70;4.05;;;;;;;3.99;43.63;97485.69;5013195;28;20462;-67
2021/03/20 11:03:13;;;;;;;4.63;3.25;;;;;;;4.79;40.16;97484.09;5005815;28;20364;-61
2021/03/20 11:05:40;;;;;;;6.95;3.17;;;;;;;5.08;37.24;97476.63;5003167;28;20044;-62
2021/03/20 11:08:28;;;;;;;5.22;3.03;;;;;;;4.05;37.92;97472.81;5000961;28;20053;-61
2021/03/20 11:11:12;;;;;;;4.25;2.88;;;;;;;3.63;37.80;97479.09;5017382;28;20057;-62
2021/03/20 11:13:44;;;;;;;5.30;3.28;;;;;;;3.39;39.32;97473.91;5010788;28;20084;-62
2021/03/20 11:16:20;;;;;;;3.78;2.90;;;;;;;3.83;38.75;97467.06;5005508;28;20045;-62
2021/03/20 11:18:54;;;;;;;6.38;3.72;;;;;;;4.21;38.51;97469.47;5018597;28;20048;-62
2021/03/20 11:21:30;;;;;;;4.05;2.88;;;;;;;2.10;39.15;97474.44;5016241;28;20045;-63
2021/03/20 11:24:20;;;;;;;5.43;3.65;;;;;;;1.18;46.21;97473.72;5006293;28;20042;-61
2021/03/20 11:26:47;;;;;;;6.32;4.15;;;;;;;1.22;49.14;97474.72;5005511;28;20050;-63
2021/03/20 11:29:17;;;;;;;7.82;4.40;;;;;;;2.56;45.48;97470.25;5009832;28;20099;-63
2021/03/20 11:31:52;;;;;;;6.13;4.50;;;;;;;3.18;45.47;97456.44;5013289;28;20136;-63
2021/03/20 11:34:41;;;;;;;6.03;4.00;;;;;;;3.73;42.61;97455.63;5000089;28;20140;-63
2021/03/20 11:37:20;;;;;;;8.75;4.70;;;;;;;3.80;43.51;97448.69;5017310;28;20048;-63
2021/03/20 11:39:56;;;;;;;4.82;3.67;;;;;;;4.73;39.11;97454.69;5016297;28;20052;-62
2021/03/20 11:42:37;;;;;;;4.57;3.33;;;;;;;4.94;35.10;97450.34;5009598;28;20057;-62
2021/03/20 11:45:21;;;;;;;6.43;3.58;;;;;;;4.85;35.84;97444.06;5011266;28;20108;-62
2021/03/20 11:47:52;;;;;;;5.32;3.55;;;;;;;2.75;38.60;97449.34;5012366;28;20037;-63
2021/03/20 11:50:27;;;;;;;5.25;3.47;;;;;;;3.68;38.31;97445.69;5002013;28;20125;-63
2021/03/20 11:53:16;;;;;;;5.85;4.10;;;;;;;2.27;40.28;97446.91;5011008;28;20038;-61
2021/03/20 11:55:42;;;;;;;5.93;3.30;;;;;;;2.91;40.43;97451.81;5008117;28;20064;-62
2021/03/20 11:58:24;;;;;;;4.82;3.33;;;;;;;4.56;37.62;97441.81;5004789;28;20045;-63
2021/03/20 12:00:50;;;;;;;6.07;3.55;;;;;;;6.74;33.00;97438.84;5010835;28;20104;-61
2021/03/20 12:03:21;;;;;;;4.75;2.95;;;;;;;7.32;31.52;97437.38;5009911;28;20038;-61
2021/03/20 12:05:47;;;;;;;6.10;3.13;;;;;;;8.66;30.31;97429.59;5019596;28;20045;-62